Tidelands — WX5026 — position and weather

sailwx.info

Track history (hours):
 
Tides and Currents Weather Stations Pressure Air Temp Water Temp Dewpoint Dewpoint Depression Visibility Wind Speed Wind Dir Waves Ship Positions

Tidelands

Owner: OMEGA PROTEIN INC., Moss Point, MS. More information available from US FCC via Universal Licensing System and Coast Guard Vessel Documentation Center.

Last reported at 2017-Oct-19 13:22 UTC. Time now 2017-Oct-20 03:11 UTC.
Position N 37°47' W 076°11'.

Length 51 m; draft 3 m.

Type: Fishing. MMSI: 367108820.

Date/timePositionNaut miles runAvg speedWind from/ knotsBaromVisibWave heightAir tempDewpointWater temp
2017-Oct-19 13:22N 37°47' W 076°11'3 1.7
2017-Oct-19 11:45N 37°48' W 076°08'0 1.1
2017-Oct-19 11:30N 37°47' W 076°08'2 2.3
2017-Oct-19 10:42N 37°46' W 076°08'72 3.6
2017-Oct-18 14:44N 38°28' W 074°55'0 0.6
2017-Oct-18 14:01N 38°29' W 074°55'1 1.0
2017-Oct-18 13:30N 38°29' W 074°56'611.9
2017-Oct-18 13:00N 38°35' W 074°53'612.4
2017-Oct-18 12:29N 38°40' W 074°49'1 1.7
2017-Oct-18 12:00N 38°40' W 074°49'612.8
2017-Oct-18 11:30N 38°34' W 074°51'612.8
2017-Oct-18 11:00N 38°28' W 074°53'612.7
2017-Oct-18 10:31N 38°22' W 074°56'712.6
2017-Oct-18 09:59N 38°16' W 075°00'912.5
2017-Oct-18 09:18N 38°08' W 075°06'412.5
2017-Oct-18 09:00N 38°05' W 075°08'  
2017-Oct-10 19:31N 36°54' W 075°54'012.2
2017-Oct-10 19:29N 36°54' W 075°54'  
Track history (hours):
 
Tides and Currents Weather Stations Pressure Air Temp Water Temp Dewpoint Dewpoint Depression Visibility Wind Speed Wind Dir Waves Ship Positions

Tidelands

Owner: OMEGA PROTEIN INC., Moss Point, MS. More information available from US FCC via Universal Licensing System and Coast Guard Vessel Documentation Center.

Last reported at 2017-Oct-19 13:22 UTC. Time now 2017-Oct-20 03:11 UTC.
Position N 37°47' W 076°11'.

Length 51 m; draft 3 m.

Type: Fishing. MMSI: 367108820.

Date/timePositionNaut miles runAvg speedWind from/ knotsBaromVisibWave heightAir tempDewpointWater temp
2017-Oct-19 13:22N 37°47' W 076°11'3 1.7
2017-Oct-19 11:45N 37°48' W 076°08'0 1.1
2017-Oct-19 11:30N 37°47' W 076°08'2 2.3
2017-Oct-19 10:42N 37°46' W 076°08'72 3.6
2017-Oct-18 14:44N 38°28' W 074°55'0 0.6
2017-Oct-18 14:01N 38°29' W 074°55'1 1.0
2017-Oct-18 13:30N 38°29' W 074°56'611.9
2017-Oct-18 13:00N 38°35' W 074°53'612.4
2017-Oct-18 12:29N 38°40' W 074°49'1 1.7
2017-Oct-18 12:00N 38°40' W 074°49'612.8
2017-Oct-18 11:30N 38°34' W 074°51'612.8
2017-Oct-18 11:00N 38°28' W 074°53'612.7
2017-Oct-18 10:31N 38°22' W 074°56'712.6
2017-Oct-18 09:59N 38°16' W 075°00'912.5
2017-Oct-18 09:18N 38°08' W 075°06'412.5
2017-Oct-18 09:00N 38°05' W 075°08'  
2017-Oct-10 19:31N 36°54' W 075°54'012.2
2017-Oct-10 19:29N 36°54' W 075°54'  

Dump ship's entire track history